Nearby METAR Reports

 

KAIK - Aiken, South Carolina, USA
Distance from station: NE 8mi, 13km
Updated: Wed, 20-Jan-2021 08:55 EST
Clear
Clear
 Wind from W
Wind: W 26 km/h, Gust: 35 km/h
Temperature: 50°F , 10°C
Wind Chill: 44°F , 7°C
Dew Point: 39°F , 4°C
Humidity: 67%
Barometer: 30.23 inHg , 1023.7 hPa
Clouds: Clear
Visibility: 16 km
2021/01/20 13:55 KAIK 201355Z AUTO 26014G19KT 10SM CLR 10/04 A3023 RMK AO2 T01050041
KDNL - Augusta/Daniel, Georgia, USA
Distance from station: WSW 16mi, 26km
Updated: Wed, 20-Jan-2021 08:53 EST
Clear
Clear
 Wind from WNW
Wind: WNW 13 km/h
Temperature: 54°F , 12°C
Dew Point: 37°F , 3°C
Humidity: 54%
Barometer: 30.24 inHg , 1024 hPa
Clouds: Clear
Visibility: 16 km
2021/01/20 13:53 KDNL 201353Z AUTO 29007KT 250V320 10SM CLR 12/03 A3024 RMK AO2 SLP240 T01170028
 
KAGS - Augusta/Bush, Georgia, USA
Distance from station: SW 18mi, 28km
Updated: Wed, 20-Jan-2021 08:53 EST
Clear
Clear
 Wind from WNW
Wind: WNW 17 km/h
Temperature: 55°F , 13°C
Dew Point: 37°F , 3°C
Humidity: 51%
Barometer: 30.24 inHg , 1024 hPa
Clouds: Clear
Visibility: 16 km
2021/01/20 13:53 KAGS 201353Z 29009KT 10SM CLR 13/03 A3024 RMK AO2 SLP241 T01280033
KBNL - Barnwell, South Carolina, USA
Distance from station: SE 33mi, 52km
Updated: Wed, 20-Jan-2021 08:55 EST
Clear
Clear
 Wind from W
Wind: W 9 km/h
Temperature: 54°F , 12°C
Dew Point: 37°F , 3°C
Humidity: 54%
Barometer: 30.24 inHg , 1024 hPa
Clouds: Clear
Visibility: 16 km
2021/01/20 13:55 KBNL 201355Z AUTO 26005KT 10SM CLR 12/03 A3024 RMK AO2
 
KHQU - Mcduffie/Thomson, Georgia, USA
Distance from station: W 42mi, 68km
Updated: Wed, 20-Jan-2021 08:55 EST
Clear
Clear
 Wind from NNW
Wind: NNW 15 km/h
Temperature: 50°F , 10°C
Wind Chill: 46°F , 8°C
Dew Point: 37°F , 3°C
Humidity: 62%
Barometer: 30.25 inHg , 1024.4 hPa
Clouds: Clear
Visibility: 16 km
2021/01/20 13:55 KHQU 201355Z AUTO 33008KT 290V010 10SM CLR 10/03 A3025 RMK AO2 T01000029
KCAE - Columbia, South Carolina, USA
Distance from station: ENE 46mi, 74km
Updated: Wed, 20-Jan-2021 08:56 EST
Few Clouds
Few Clouds
 Wind from W
Wind: W 30 km/h
Temperature: 52°F , 11°C
Dew Point: 39°F , 4°C
Humidity: 62%
Barometer: 30.19 inHg , 1022.4 hPa
Clouds: Few Clouds
Visibility: 16 km
Cloud details: Few Clouds 18000 ft
2021/01/20 13:56 KCAE 201356Z 26016KT 10SM FEW180 11/04 A3019 RMK AO2 SLP223 T01110039
 
KAQX - Allendale, South Carolina, USA
Distance from station: SE 50mi, 80km
Updated: Wed, 20-Jan-2021 08:55 EST
Mostly cloudy
Mostly cloudy
 Wind from calm
Wind: Calm
Temperature: 52°F , 11°C
Dew Point: 37°F , 3°C
Humidity: 58%
Barometer: 30.24 inHg , 1024 hPa
Clouds: Mostly cloudy
Visibility: 16 km
Cloud details: Mostly cloudy 7500 ft
2021/01/20 13:55 KAQX 201355Z AUTO 00000KT 10SM BKN075 11/03 A3024 RMK AO2